Observations for GUERNSEY AIRPORT, United Kingdom (EGJB)

EGJB 200720Z 24007KT 0150 R27/0200 FG OVC000 09/09 Q1033
EGJB 200650Z 23007KT 0200 R27/0250 FG BKN000 09/09 Q1033
EGJB 200620Z 24008KT 0300 R27/0400 -DZ FG BKN000 09/09 Q1032
EGJB 200550Z 23007KT 0500 R27/0600 -DZ FG BKN000 09/09 Q1032
EGJB 200520Z 24009KT 0600 R27/1000 -DZ FG BKN000 09/09 Q1032
EGJB 200450Z 23007KT 0300 -DZ FG BKN000 09/09 Q1032 
EGJB 200420Z 23007KT 0400 -DZ FG BKN000 09/09 Q1032 
EGJB 200350Z 23008KT 0400 -DZ FG BKN000 09/09 Q1032 
EGJB 200250Z 24009KT 4500 -DZ BR SCT001 BKN002 09/09 Q1032  
EGJB 200150Z 23007KT 9999 FEW003 SCT010 BKN018 08/08 Q1032  
EGJB 200050Z 22006KT 9999 FEW003 08/08 Q1032
EGJB 192350Z 22006KT 9999 FEW004 SCT010 08/08 Q1032 
EGJB 192320Z 23005KT 9999 FEW004 BKN010 08/08 Q1032 
EGJB 192250Z 23006KT 9999 FEW006 SCT009 BKN012 08/08 Q1032  
EGJB 192220Z 23006KT 9999 FEW006 SCT010 BKN012 08/07 Q1032  
EGJB 192150Z 22005KT 9999 FEW006 07/07 Q1032
EGJB 192120Z 23005KT 9999 FEW008 07/07 Q1031
EGJB 192050Z 25005KT 9999 FEW008 07/07 Q1032
EGJB 192020Z 25006KT 9999 FEW008 07/07 Q1032
EGJB 191950Z 24005KT 9999 FEW040 07/07 Q1031
EGJB 191920Z 26006KT 9999 FEW008 07/07 Q1031
EGJB 191850Z 24005KT 9999 FEW008 07/07 Q1030
EGJB 191820Z 24004KT 9999 FEW009 08/07 Q1030
EGJB 191750Z 26006KT 9999 FEW009 09/08 Q1030
EGJB 191720Z 27007KT 9999 FEW009 10/08 Q1030
EGJB 191650Z 28008KT 9999 FEW008 10/09 Q1029
EGJB 191620Z 28010KT 9999 FEW008 10/09 Q1029
EGJB 191550Z 29009KT 9999 FEW005 SCT008 10/09 Q1029 
EGJB 191520Z 28008KT 9999 FEW005 SCT008 10/09 Q1029 
EGJB 191450Z 23009KT 210V270 9999 FEW003 SCT006 10/10 Q1029 
EGJB 191420Z 22010KT 9999 FEW002 BKN006 10/10 Q1029 
EGJB 191350Z 23009KT 9999 6000SE VCFG FEW001 BKN006 10/10 Q1029 
EGJB 191320Z 22008KT 0800 R27/P1500 FG SCT000 BKN001 09/09 Q1030
EGJB 191250Z 21007KT 9999 8000E -DZ SCT001 BKN003 09/09 Q1030 REDZ  
EGJB 191220Z 19007KT 5000 DZ BR FEW002 SCT003 BKN009 09/09 Q1030
EGJB 191150Z 20007KT 9999 VCSH SCT003 BKN020 10/09 Q1029
EGJB 191120Z 22007KT 9999 3500SE -SHRA SCT003 BKN020 10/09 Q1029
EGJB 191050Z 24009KT 9999 VCSH FEW004 SCT008 BKN020 10/09 Q1029 
EGJB 191020Z 23006KT 9999 VCSH FEW005 BKN025 10/09 Q1029
EGJB 190950Z 24006KT 9999 VCSH FEW005 BKN028 10/09 Q1029
EGJB 190920Z 23006KT 9999 -SHRA FEW005 BKN030 10/09 Q1029   
EGJB 190850Z 27005KT 9999 VCSH SCT006 BKN034 10/09 Q1028
EGJB 190820Z 28004KT 9999 FEW006 BKN034 09/09 Q1028 
EGJB 190750Z 29002KT 9999 FEW007 BKN034 09/09 Q1028 
EGJB 190720Z VRB02KT 9999 SCT007 BKN034 09/08 Q1028 
EGJB 190650Z 31002KT 9999 SCT007 BKN034 08/08 Q1027